地図

経路データ

SID SEASON NUMBER BASIN SUBBASIN NAME ISO_TIME NATURE LAT LON WMO_WIND WMO_PRES WMO_AGENCY TRACK_TYPE DIST2LAND LANDFALL IFLAG USA_AGENCY USA_ATCF_ID USA_LAT USA_LON USA_RECORD USA_STATUS USA_WIND USA_PRES USA_SSHS USA_R34_NE USA_R34_SE USA_R34_SW USA_R34_NW USA_R50_NE USA_R50_SE USA_R50_SW USA_R50_NW USA_R64_NE USA_R64_SE USA_R64_SW USA_R64_NW USA_POCI USA_ROCI USA_RMW USA_EYE TOKYO_LAT TOKYO_LON TOKYO_GRADE TOKYO_WIND TOKYO_PRES TOKYO_R50_DIR TOKYO_R50_LONG TOKYO_R50_SHORT TOKYO_R30_DIR TOKYO_R30_LONG TOKYO_R30_SHORT TOKYO_LAND CMA_LAT CMA_LON CMA_CAT CMA_WIND CMA_PRES HKO_LAT HKO_LON HKO_CAT HKO_WIND HKO_PRES NEWDELHI_LAT NEWDELHI_LON NEWDELHI_GRADE NEWDELHI_WIND NEWDELHI_PRES NEWDELHI_CI NEWDELHI_DP NEWDELHI_POCI REUNION_LAT REUNION_LON REUNION_TYPE REUNION_WIND REUNION_PRES REUNION_TNUM REUNION_CI REUNION_RMW REUNION_R34_NE REUNION_R34_SE REUNION_R34_SW REUNION_R34_NW REUNION_R50_NE REUNION_R50_SE REUNION_R50_SW REUNION_R50_NW REUNION_R64_NE REUNION_R64_SE REUNION_R64_SW REUNION_R64_NW BOM_LAT BOM_LON BOM_TYPE BOM_WIND BOM_PRES BOM_TNUM BOM_CI BOM_RMW BOM_R34_NE BOM_R34_SE BOM_R34_SW BOM_R34_NW BOM_R50_NE BOM_R50_SE BOM_R50_SW BOM_R50_NW BOM_R64_NE BOM_R64_SE BOM_R64_SW BOM_R64_NW BOM_ROCI BOM_POCI BOM_EYE BOM_POS_METHOD BOM_PRES_METHOD NADI_LAT NADI_LON NADI_CAT NADI_WIND NADI_PRES WELLINGTON_LAT WELLINGTON_LON WELLINGTON_WIND WELLINGTON_PRES DS824_LAT DS824_LON DS824_STAGE DS824_WIND DS824_PRES TD9636_LAT TD9636_LON TD9636_STAGE TD9636_WIND TD9636_PRES TD9635_LAT TD9635_LON TD9635_WIND TD9635_PRES TD9635_ROCI NEUMANN_LAT NEUMANN_LON NEUMANN_CLASS NEUMANN_WIND NEUMANN_PRES MLC_LAT MLC_LON MLC_CLASS MLC_WIND MLC_PRES USA_GUST BOM_GUST BOM_GUST_PER REUNION_GUST REUNION_GUST_PER USA_SEAHGT USA_SEARAD_NE USA_SEARAD_SE USA_SEARAD_SW USA_SEARAD_NW STORM_SPEED STORM_DIR
1923285N10267 1923 67 EP MM NOT_NAMED 1923-10-12 06:00:00 TS 10.4000 -93.0000 35 hurdat_atl main 433 387 O_____________ hurdat_atl AL061923 10.4000 -93.0000 TS 35 0 17 332
1923285N10267 1923 67 EP MM NOT_NAMED 1923-10-12 09:00:00 TS 11.1476 -93.4071 main 387 336 P_____________ AL061923 11.1476 -93.4071 TS 37 0 17 332
1923285N10267 1923 67 EP MM NOT_NAMED 1923-10-12 12:00:00 TS 11.9000 -93.8000 40 hurdat_atl main 336 295 O_____________ hurdat_atl AL061923 11.9000 -93.8000 TS 40 0 17 334
1923285N10267 1923 67 EP MM NOT_NAMED 1923-10-12 15:00:00 TS 12.6574 -94.1652 main 295 264 P_____________ AL061923 12.6574 -94.1652 TS 40 0 17 336
1923285N10267 1923 67 EP MM NOT_NAMED 1923-10-12 18:00:00 TS 13.4000 -94.5000 40 hurdat_atl main 264 222 O_____________ hurdat_atl AL061923 13.4000 -94.5000 TS 40 0 16 337
1923285N10267 1923 67 EP MM NOT_NAMED 1923-10-12 21:00:00 TS 14.1224 -94.8151 main 222 138 P_____________ AL061923 14.1224 -94.8151 TS 40 0 15 337
1923285N10267 1923 67 EP MM NOT_NAMED 1923-10-13 00:00:00 TS 14.8000 -95.1000 40 hurdat_atl main 138 64 O_____________ hurdat_atl AL061923 14.8000 -95.1000 TS 40 0 14 338
1923285N10267 1923 67 EP MM NOT_NAMED 1923-10-13 03:00:00 TS 15.4225 -95.3652 main 64 0 P_____________ AL061923 15.4225 -95.3652 TS 40 0 13 338
1923285N10267 1923 67 EP MM NOT_NAMED 1923-10-13 06:00:00 TS 16.0000 -95.6000 40 hurdat_atl main 0 0 O_____________ hurdat_atl AL061923 16.0000 -95.6000 TS 40 0 12 338
1923285N10267 1923 67 EP MM NOT_NAMED 1923-10-13 09:00:00 TS 16.5575 -95.8300 main 0 0 P_____________ AL061923 16.5575 -95.8300 TS 37 0 12 341
1923285N10267 1923 67 EP MM NOT_NAMED 1923-10-13 12:00:00 TS 17.1000 -96.0000 35 hurdat_atl main 0 0 O_____________ hurdat_atl AL061923 17.1000 -96.0000 TS 35 0 11 346
1923285N10267 1923 67 EP MM NOT_NAMED 1923-10-13 15:00:00 TS 17.6424 -96.1099 main 0 0 P_____________ AL061923 17.6424 -96.1099 TS 32 -1 11 355
1923285N10267 1923 67 EP MM NOT_NAMED 1923-10-13 18:00:00 TS 18.2000 -96.1000 30 hurdat_atl main 0 0 O_____________ hurdat_atl AL061923 18.2000 -96.1000 TD 30 -1 12 8
1923285N10267 1923 67 EP MM NOT_NAMED 1923-10-13 21:00:00 TS 18.8000 -95.9452 main 0 0 P_____________ AL061923 18.8000 -95.9452 TD 30 -1 13 18
1923285N10267 1923 67 NA GM NOT_NAMED 1923-10-14 00:00:00 TS 19.4000 -95.7000 30 hurdat_atl main 47 47 O_____________ hurdat_atl AL061923 19.4000 -95.7000 TD 30 -1 13 22
1923285N10267 1923 67 NA GM NOT_NAMED 1923-10-14 03:00:00 TS 19.9650 -95.4574 main 94 94 P_____________ AL061923 19.9650 -95.4574 TD 32 -1 12 23
1923285N10267 1923 67 NA GM NOT_NAMED 1923-10-14 06:00:00 TS 20.5000 -95.2000 35 hurdat_atl main 142 142 O_____________ hurdat_atl AL061923 20.5000 -95.2000 TS 35 0 12 24
1923285N10267 1923 67 NA GM NOT_NAMED 1923-10-14 09:00:00 TS 21.0150 -94.9498 main 198 198 P_____________ AL061923 21.0150 -94.9498 TS 37 0 11 25
1923285N10267 1923 67 NA GM NOT_NAMED 1923-10-14 12:00:00 TS 21.5000 -94.7000 40 hurdat_atl main 251 251 O_____________ hurdat_atl AL061923 21.5000 -94.7000 TS 40 0 11 26
1923285N10267 1923 67 NA GM NOT_NAMED 1923-10-14 15:00:00 TS 21.9725 -94.4499 main 302 302 P_____________ AL061923 21.9725 -94.4499 TS 42 0 10 27
1923285N10267 1923 67 NA GM NOT_NAMED 1923-10-14 18:00:00 TS 22.4000 -94.2000 45 hurdat_atl main 331 331 O_____________ hurdat_atl AL061923 22.4000 -94.2000 TS 45 0 9 29
1923285N10267 1923 67 NA GM NOT_NAMED 1923-10-14 21:00:00 TS 22.7799 -93.9573 main 365 365 P_____________ AL061923 22.7799 -93.9573 TS 47 0 8 33
1923285N10267 1923 67 NA GM NOT_NAMED 1923-10-15 00:00:00 TS 23.1000 -93.7000 50 hurdat_atl main 406 402 O_____________ hurdat_atl AL061923 23.1000 -93.7000 TS 50 0 8 41
1923285N10267 1923 67 NA GM NOT_NAMED 1923-10-15 03:00:00 TS 23.3574 -93.4147 main 409 401 P_____________ AL061923 23.3574 -93.4147 TS 52 0 7 48
1923285N10267 1923 67 NA GM NOT_NAMED 1923-10-15 06:00:00 TS 23.6000 -93.1000 55 hurdat_atl main 401 393 O_____________ hurdat_atl AL061923 23.6000 -93.1000 TS 55 0 8 51
1923285N10267 1923 67 NA GM NOT_NAMED 1923-10-15 09:00:00 TS 23.8474 -92.7645 main 396 392 P_____________ AL061923 23.8474 -92.7645 TS 57 0 9 47
1923285N10267 1923 67 NA GM NOT_NAMED 1923-10-15 12:00:00 TS 24.2000 -92.4000 60 hurdat_atl main 408 408 O_____________ hurdat_atl AL061923 24.2000 -92.4000 TS 60 0 11 39
1923285N10267 1923 67 NA GM NOT_NAMED 1923-10-15 15:00:00 TS 24.7101 -91.9924 main 438 418 P_____________ AL061923 24.7101 -91.9924 TS 62 0 14 31
1923285N10267 1923 67 NA GM NOT_NAMED 1923-10-15 18:00:00 TS 25.4000 -91.6000 65 hurdat_atl main 418 326 O_____________ hurdat_atl AL061923 25.4000 -91.6000 HU 65 1 17 24
1923285N10267 1923 67 NA GM NOT_NAMED 1923-10-15 21:00:00 TS 26.2401 -91.2407 main 325 223 P_____________ AL061923 26.2401 -91.2407 HU 67 1 19 17
1923285N10267 1923 67 NA GM NOT_NAMED 1923-10-16 00:00:00 TS 27.2000 -91.0000 70 hurdat_atl main 212 112 O_____________ hurdat_atl AL061923 27.2000 -91.0000 HU 70 1 19 8
1923285N10267 1923 67 NA GM NOT_NAMED 1923-10-16 03:00:00 TS 28.1624 -90.9539 main 100 9 P_____________ AL061923 28.1624 -90.9539 HU 70 1 20 0
1923285N10267 1923 67 NA GM NOT_NAMED 1923-10-16 06:00:00 TS 29.2000 -91.0000 70 983 hurdat_atl main 0 0 O_____________ hurdat_atl AL061923 29.2000 -91.0000 L HU 70 983 1 22 0
1923285N10267 1923 67 NA NA NOT_NAMED 1923-10-16 09:00:00 TS 30.3350 -90.9855 main 0 0 P_____________ AL061923 30.3350 -90.9855 HU 60 987 0 23 0
1923285N10267 1923 67 NA NA NOT_NAMED 1923-10-16 12:00:00 TS 31.5000 -91.0000 50 991 hurdat_atl main 0 0 O_____________ hurdat_atl AL061923 31.5000 -91.0000 TS 50 991 0 23 358
1923285N10267 1923 67 NA NA NOT_NAMED 1923-10-16 15:00:00 TS 32.6225 -91.0847 main 0 0 P_____________ AL061923 32.6225 -91.0847 TS 47 0 22 356
1923285N10267 1923 67 NA NA NOT_NAMED 1923-10-16 18:00:00 TS 33.7000 -91.2000 45 hurdat_atl main 0 0 O_____________ hurdat_atl AL061923 33.7000 -91.2000 TS 45 0 21 355
1923285N10267 1923 67 NA NA NOT_NAMED 1923-10-16 21:00:00 TS 34.7299 -91.2930 main 0 0 P_____________ AL061923 34.7299 -91.2930 TS 45 0 20 355
1923285N10267 1923 67 NA NA NOT_NAMED 1923-10-17 00:00:00 TS 35.7000 -91.4000 45 hurdat_atl main 0 0 O_____________ hurdat_atl AL061923 35.7000 -91.4000 TS 45 0 19 354
1923285N10267 1923 67 NA NA NOT_NAMED 1923-10-17 03:00:00 TS 36.6375 -91.5425 main 0 0 P_____________ AL061923 36.6375 -91.5425 TS 40 0 18 352
1923285N10267 1923 67 NA NA NOT_NAMED 1923-10-17 06:00:00 TS 37.5000 -91.7000 35 hurdat_atl main 0 0 O_____________ hurdat_atl AL061923 37.5000 -91.7000 TS 35 0 17 351
1923285N10267 1923 67 NA NA NOT_NAMED 1923-10-17 09:00:00 TS 38.2750 -91.8521 main 0 0 P_____________ AL061923 38.2750 -91.8521 TS 32 -1 15 351
1923285N10267 1923 67 NA NA NOT_NAMED 1923-10-17 12:00:00 TS 39.0000 -92.0000 30 hurdat_atl main 0 O_____________ hurdat_atl AL061923 39.0000 -92.0000 TD 30 -1 15 351

IBTrACS Databaseについて

本データベースは、米国NOAAが公開する1842年以降の世界の熱帯低気圧のベストトラックデータアーカイブInternational Best Track Archive for Climate Stewardship (IBTrACS)を、ウェブで閲覧しやすい形式に変換したものです。

最終更新日:2021-10-08